createdAt,value
2019-01-21T00:02:20.346Z,102207.02
2019-01-21T00:04:51.617Z,102208.26
2019-01-21T00:07:24.523Z,102216.63
2019-01-21T00:09:55.335Z,102215.66
2019-01-21T00:12:26.640Z,102211.77
2019-01-21T00:15:00.595Z,102204.34
2019-01-21T00:17:31.731Z,102203.83
2019-01-21T00:20:05.367Z,102195.48
2019-01-21T00:22:35.695Z,102203.80
2019-01-21T00:25:09.306Z,102203.25
2019-01-21T00:27:39.862Z,102201.50
2019-01-21T00:30:13.206Z,102203.20
2019-01-21T00:32:43.443Z,102198.85
2019-01-21T00:35:18.163Z,102199.64
2019-01-21T00:37:48.557Z,102205.00
2019-01-21T00:40:20.299Z,102200.56
2019-01-21T00:42:50.444Z,102194.31
2019-01-21T00:45:20.882Z,102195.66
2019-01-21T00:47:51.804Z,102198.63
2019-01-21T00:50:22.234Z,102193.68
2019-01-21T00:52:52.962Z,102195.94
2019-01-21T00:55:22.840Z,102194.10
2019-01-21T00:57:53.308Z,102197.66
2019-01-21T01:00:25.051Z,102200.63
2019-01-21T01:02:56.561Z,102198.47
2019-01-21T01:05:31.163Z,102199.73
2019-01-21T01:08:02.665Z,102198.30
2019-01-21T01:10:34.718Z,102193.62
2019-01-21T01:13:04.713Z,102192.02
2019-01-21T01:15:35.077Z,102193.62
2019-01-21T01:18:05.041Z,102186.96
2019-01-21T01:20:37.980Z,102189.20
2019-01-21T01:23:07.906Z,102187.53
2019-01-21T01:25:38.091Z,102183.08
2019-01-21T01:28:08.680Z,102177.30
2019-01-21T01:30:41.692Z,102181.27
2019-01-21T01:33:12.470Z,102176.27
2019-01-21T01:35:42.880Z,102175.78
2019-01-21T01:38:12.801Z,102175.07
2019-01-21T01:40:44.329Z,102167.39
2019-01-21T01:43:16.856Z,102162.16
2019-01-21T01:45:47.719Z,102162.54
2019-01-21T01:48:18.256Z,102165.28
2019-01-21T01:50:52.322Z,102165.61
2019-01-21T01:53:22.583Z,102162.45
2019-01-21T01:55:55.443Z,102155.53
2019-01-21T01:58:26.531Z,102157.73
2019-01-21T02:00:59.673Z,102158.53
2019-01-21T02:03:29.573Z,102152.75
2019-01-21T02:06:00.176Z,102152.30
2019-01-21T02:08:31.316Z,102154.89
2019-01-21T02:11:03.381Z,102158.15
2019-01-21T02:13:33.770Z,102159.37
2019-01-21T02:16:04.036Z,102157.14
2019-01-21T02:18:35.480Z,102156.63
2019-01-21T02:21:09.292Z,102155.31
2019-01-21T02:23:39.819Z,102151.33
2019-01-21T02:26:10.904Z,102143.70
2019-01-21T02:28:47.973Z,102135.92
2019-01-21T02:31:37.672Z,102136.67
2019-01-21T02:34:27.541Z,102134.98
2019-01-21T02:37:13.296Z,102130.36
2019-01-21T02:40:19.372Z,102122.73
2019-01-21T02:43:11.343Z,102119.64
2019-01-21T02:46:00.845Z,102118.31
2019-01-21T02:48:59.979Z,102113.82
2019-01-21T02:51:51.587Z,102112.25
2019-01-21T02:54:33.265Z,102108.25
2019-01-21T02:57:15.644Z,102104.24
2019-01-21T02:59:51.969Z,102114.87
2019-01-21T03:02:44.021Z,102118.28
2019-01-21T03:05:25.972Z,102113.02
2019-01-21T03:08:05.055Z,102109.67
2019-01-21T03:10:51.950Z,102105.66
2019-01-21T03:13:25.179Z,102099.17
2019-01-21T03:16:10.827Z,102105.31
2019-01-21T03:19:12.778Z,102103.05
2019-01-21T03:22:11.793Z,102095.92
2019-01-21T03:25:08.376Z,102090.72
2019-01-21T03:27:59.357Z,102086.71
2019-01-21T03:30:38.512Z,102089.36
2019-01-21T03:33:27.622Z,102082.86
2019-01-21T03:36:35.245Z,102070.07
2019-01-21T03:39:31.080Z,102066.55
2019-01-21T03:42:16.175Z,102063.48
2019-01-21T03:45:21.746Z,102052.09
2019-01-21T03:47:56.379Z,102037.50
2019-01-21T03:50:47.821Z,102036.20
2019-01-21T03:53:33.901Z,102040.70
2019-01-21T03:56:09.895Z,102037.66
2019-01-21T03:59:05.437Z,102041.58
2019-01-21T04:01:46.899Z,102047.28
2019-01-21T04:04:35.370Z,102041.98
2019-01-21T04:07:10.456Z,102043.67
2019-01-21T04:09:49.750Z,102034.95
2019-01-21T04:12:31.872Z,102030.98
2019-01-21T04:15:14.071Z,102022.20
2019-01-21T04:17:47.535Z,102030.95
2019-01-21T04:20:48.350Z,102032.31
2019-01-21T04:23:27.994Z,102035.81
2019-01-21T04:26:02.647Z,102036.66
2019-01-21T04:28:54.670Z,102036.70
2019-01-21T04:31:34.161Z,102027.89
2019-01-21T04:34:07.575Z,102040.75
2019-01-21T04:36:58.326Z,102046.83
2019-01-21T04:39:46.782Z,102037.75
2019-01-21T04:42:29.364Z,102035.86
2019-01-21T04:45:05.706Z,102035.00
2019-01-21T04:47:51.140Z,102035.45
2019-01-21T04:50:59.702Z,102028.02
2019-01-21T04:57:00.810Z,102018.39
2019-01-21T05:00:28.851Z,102012.30
2019-01-21T05:03:14.254Z,102011.89
2019-01-21T05:05:45.582Z,101999.56
2019-01-21T05:08:45.796Z,102000.93
2019-01-21T05:11:30.744Z,101990.75
2019-01-21T05:14:15.634Z,101996.14
2019-01-21T05:17:09.976Z,101991.36
2019-01-21T05:19:48.917Z,101979.82
2019-01-21T05:22:22.939Z,101975.44
2019-01-21T05:25:23.903Z,101979.39
2019-01-21T05:28:06.911Z,101975.87
2019-01-21T05:30:51.009Z,101983.41
2019-01-21T05:33:36.496Z,101983.38
2019-01-21T05:36:15.788Z,101987.41
2019-01-21T05:39:04.132Z,101991.36
2019-01-21T05:41:57.070Z,101983.38
2019-01-21T05:44:36.002Z,101969.25
2019-01-21T05:47:25.644Z,101974.58
2019-01-21T05:50:12.368Z,101975.03
2019-01-21T05:52:57.492Z,101979.92
2019-01-21T05:55:42.139Z,101975.50
2019-01-21T05:58:33.515Z,101968.44
2019-01-21T06:01:09.480Z,101955.22
2019-01-21T06:03:42.480Z,101955.66
2019-01-21T06:06:24.491Z,101967.11
2019-01-21T06:09:04.052Z,101957.41
2019-01-21T06:11:58.623Z,101945.44
2019-01-21T06:15:06.687Z,101950.28
2019-01-21T06:17:52.183Z,101938.39
2019-01-21T06:20:28.231Z,101948.05
2019-01-21T06:23:04.453Z,101954.69
2019-01-21T06:25:47.743Z,101949.38
2019-01-21T06:28:38.833Z,101948.06
2019-01-21T06:31:18.261Z,101961.33
2019-01-21T06:34:01.821Z,101962.16
2019-01-21T06:37:07.547Z,101963.98
2019-01-21T06:40:16.060Z,101956.88
2019-01-21T06:43:30.663Z,101959.55
2019-01-21T06:46:06.635Z,101955.61
2019-01-21T06:49:04.720Z,101952.10
2019-01-21T06:51:52.842Z,101947.19
2019-01-21T06:54:52.843Z,101949.84
2019-01-21T06:57:56.998Z,101956.03
2019-01-21T07:00:36.408Z,101951.63
2019-01-21T07:03:19.144Z,101956.91
2019-01-21T07:06:18.070Z,101957.36
2019-01-21T07:09:17.512Z,101954.31
2019-01-21T07:11:55.259Z,101963.58
2019-01-21T07:14:45.569Z,101961.78
2019-01-21T07:17:44.445Z,101953.46
2019-01-21T07:20:39.502Z,101958.32
2019-01-21T07:23:23.778Z,101945.03
2019-01-21T07:26:09.167Z,101941.08
2019-01-21T07:28:59.996Z,101941.95
2019-01-21T07:31:41.752Z,101942.42
2019-01-21T07:34:20.807Z,101937.55
2019-01-21T07:37:00.235Z,101932.66
2019-01-21T07:43:09.012Z,101935.75
2019-01-21T07:45:52.586Z,101947.28
2019-01-21T07:48:32.837Z,101949.92
2019-01-21T07:51:17.264Z,101960.54
2019-01-21T07:53:57.993Z,101953.91
2019-01-21T07:57:00.909Z,101946.41
2019-01-21T07:59:40.527Z,101941.95
2019-01-21T08:02:20.481Z,101945.97
2019-01-21T08:05:08.390Z,101942.43
2019-01-21T08:08:02.317Z,101949.51
2019-01-21T08:10:41.476Z,101938.89
2019-01-21T08:13:29.496Z,101945.08
2019-01-21T08:16:35.787Z,101944.64
2019-01-21T08:19:34.759Z,101942.89
2019-01-21T08:22:25.916Z,101944.22
2019-01-21T08:25:08.368Z,101935.77
2019-01-21T08:27:50.206Z,101942.00
2019-01-21T08:30:40.832Z,101941.54
2019-01-21T08:33:16.599Z,101933.58
2019-01-21T08:35:55.480Z,101934.01
2019-01-21T08:38:40.420Z,101930.05
2019-01-21T08:41:28.626Z,101925.16
2019-01-21T08:44:19.969Z,101927.81
2019-01-21T08:47:05.018Z,101926.94
2019-01-21T08:49:38.198Z,101929.59
2019-01-21T08:52:23.489Z,101929.15
2019-01-21T08:54:56.794Z,101931.31
2019-01-21T08:58:04.602Z,101923.33
2019-01-21T09:00:55.994Z,101922.87
2019-01-21T09:03:48.657Z,101920.20
2019-01-21T09:06:40.175Z,101917.98
2019-01-21T09:09:16.103Z,101908.21
2019-01-21T09:12:08.952Z,101904.24
2019-01-21T09:15:10.688Z,101906.41
2019-01-21T09:17:46.339Z,101907.30
2019-01-21T09:20:22.832Z,101903.24
2019-01-21T09:23:05.248Z,101901.41
2019-01-21T09:25:44.991Z,101889.39
2019-01-21T09:28:27.522Z,101893.78
2019-01-21T09:31:12.863Z,101893.77
2019-01-21T09:33:48.833Z,101901.75
2019-01-21T09:36:39.584Z,101899.10
2019-01-21T09:39:25.157Z,101902.18
2019-01-21T09:42:18.074Z,101899.08
2019-01-21T09:45:00.013Z,101892.34
2019-01-21T09:47:29.074Z,101898.94
2019-01-21T09:49:59.092Z,101894.45
2019-01-21T09:52:29.176Z,101893.56
2019-01-21T09:54:59.330Z,101898.08
2019-01-21T09:57:29.642Z,101901.26
2019-01-21T09:59:59.926Z,101908.38
2019-01-21T10:02:33.336Z,101903.50
2019-01-21T10:05:03.342Z,101897.27
2019-01-21T10:07:36.865Z,101889.30
2019-01-21T10:10:16.171Z,101888.41
2019-01-21T10:13:16.814Z,101879.48
2019-01-21T10:16:09.505Z,101873.25
2019-01-21T10:18:45.125Z,101875.05
2019-01-21T10:21:23.786Z,101876.41
2019-01-21T10:24:06.085Z,101856.86
2019-01-21T10:26:56.119Z,101862.52
2019-01-21T10:29:42.446Z,101862.09
2019-01-21T10:32:31.056Z,101849.34
2019-01-21T10:35:13.846Z,101843.01
2019-01-21T10:37:53.174Z,101828.38
2019-01-21T10:40:36.168Z,101823.88
2019-01-21T10:43:12.993Z,101826.78
2019-01-21T10:46:04.652Z,101823.77
2019-01-21T10:48:49.528Z,101824.31
2019-01-21T10:51:26.098Z,101823.48
2019-01-21T10:53:59.935Z,101815.55
2019-01-21T10:56:39.377Z,101804.52
2019-01-21T10:59:43.059Z,101808.59
2019-01-21T11:02:38.317Z,101801.16
2019-01-21T11:05:24.456Z,101793.69
2019-01-21T11:08:21.481Z,101798.72
2019-01-21T11:11:04.219Z,101793.34
2019-01-21T11:13:44.373Z,101793.35
2019-01-21T11:16:17.586Z,101794.10
2019-01-21T11:18:53.966Z,101794.34
2019-01-21T11:21:27.320Z,101794.69
2019-01-21T11:24:26.161Z,101785.65
2019-01-21T11:27:11.945Z,101782.91
2019-01-21T11:30:02.261Z,101776.91
2019-01-21T11:32:51.210Z,101777.29
2019-01-21T11:35:33.428Z,101765.80
2019-01-21T11:38:18.893Z,101767.00
2019-01-21T11:41:04.541Z,101761.66
2019-01-21T11:43:40.779Z,101768.23
2019-01-21T11:46:24.101Z,101769.23
2019-01-21T11:49:04.584Z,101772.75
2019-01-21T11:51:40.609Z,101767.55
2019-01-21T11:54:22.838Z,101765.84
2019-01-21T11:57:13.983Z,101768.80
2019-01-21T11:59:49.670Z,101765.12
2019-01-21T12:02:22.747Z,101767.79
2019-01-21T12:05:01.438Z,101760.25
2019-01-21T12:07:59.042Z,101759.67
2019-01-21T12:10:48.530Z,101754.75
2019-01-21T12:13:36.838Z,101755.98
2019-01-21T12:16:16.019Z,101748.83
2019-01-21T12:18:52.477Z,101750.52
2019-01-21T12:21:40.695Z,101756.06
2019-01-21T12:24:14.046Z,101745.23
2019-01-21T12:26:59.766Z,101747.84
2019-01-21T12:29:39.737Z,101745.13
2019-01-21T12:32:25.151Z,101748.53
2019-01-21T12:35:17.215Z,101744.77
2019-01-21T12:37:53.659Z,101734.42
2019-01-21T12:40:29.870Z,101735.53
2019-01-21T12:43:08.403Z,101732.45
2019-01-21T12:46:05.233Z,101732.62
2019-01-21T12:48:46.816Z,101733.84
2019-01-21T12:51:28.749Z,101731.47
2019-01-21T12:54:23.716Z,101730.30
2019-01-21T12:57:11.575Z,101727.16
2019-01-21T12:59:47.640Z,101723.14
2019-01-21T13:02:35.424Z,101720.84
2019-01-21T13:05:26.998Z,101706.14
2019-01-21T13:08:12.325Z,101715.61
2019-01-21T13:10:45.790Z,101711.59
2019-01-21T13:13:27.663Z,101701.05
2019-01-21T13:16:12.299Z,101703.66
2019-01-21T13:18:51.587Z,101707.61
2019-01-21T13:21:52.765Z,101696.66
2019-01-21T13:24:46.957Z,101707.84
2019-01-21T13:27:49.394Z,101701.16
2019-01-21T13:30:25.342Z,101703.41
2019-01-21T13:33:07.246Z,101698.06
2019-01-21T13:35:53.107Z,101704.31
2019-01-21T13:38:45.458Z,101697.20
2019-01-21T13:41:27.205Z,101693.37
2019-01-21T13:44:12.098Z,101688.87
2019-01-21T13:47:08.416Z,101670.63
2019-01-21T13:49:50.678Z,101673.78
2019-01-21T13:52:37.806Z,101674.83
2019-01-21T13:55:17.050Z,101666.48
2019-01-21T13:58:07.378Z,101669.03
2019-01-21T14:00:55.953Z,101668.17
2019-01-21T14:03:37.838Z,101668.13
2019-01-21T14:06:18.114Z,101665.56
2019-01-21T14:08:53.440Z,101662.04
2019-01-21T14:11:35.854Z,101664.37
2019-01-21T14:14:11.830Z,101664.37
2019-01-21T14:16:54.298Z,101653.59
2019-01-21T14:19:33.080Z,101649.09
2019-01-21T14:22:20.024Z,101640.28
2019-01-21T14:25:16.610Z,101636.09
2019-01-21T14:28:25.746Z,101630.94
2019-01-21T14:31:07.756Z,101632.83
2019-01-21T14:33:58.980Z,101627.59
2019-01-21T14:36:35.521Z,101633.81
2019-01-21T14:39:09.550Z,101625.84
2019-01-21T14:42:08.488Z,101630.35
2019-01-21T14:45:04.151Z,101627.80
2019-01-21T14:47:40.129Z,101627.80
2019-01-21T14:50:35.829Z,101628.36
2019-01-21T14:53:18.218Z,101626.66
2019-01-21T14:55:54.462Z,101629.93
2019-01-21T14:58:27.839Z,101628.66
2019-01-21T15:01:16.186Z,101625.84
2019-01-21T15:03:51.857Z,101629.84
2019-01-21T15:06:39.799Z,101626.34
2019-01-21T15:09:30.551Z,101618.52
2019-01-21T15:12:22.402Z,101627.38
2019-01-21T15:15:29.772Z,101618.04
2019-01-21T15:18:22.927Z,101625.20
2019-01-21T15:21:11.500Z,101617.66
2019-01-21T15:24:12.472Z,101619.25
2019-01-21T15:27:00.594Z,101624.23
2019-01-21T15:29:39.690Z,101626.84
2019-01-21T15:32:36.796Z,101625.02
2019-01-21T15:35:12.700Z,101628.81
2019-01-21T15:38:06.770Z,101624.45
2019-01-21T15:41:09.964Z,101628.33
2019-01-21T15:43:43.086Z,101626.06
2019-01-21T15:46:19.584Z,101629.31
2019-01-21T15:48:54.327Z,101623.83
2019-01-21T15:51:33.979Z,101627.41
2019-01-21T15:54:32.580Z,101640.64
2019-01-21T15:57:33.276Z,101629.38
2019-01-21T16:00:27.226Z,101630.73
2019-01-21T16:03:35.300Z,101633.11
2019-01-21T16:06:21.202Z,101630.02
2019-01-21T16:09:11.212Z,101630.73
2019-01-21T16:11:56.955Z,101627.27
2019-01-21T16:14:30.249Z,101628.11
2019-01-21T16:17:06.610Z,101629.05
2019-01-21T16:19:36.905Z,101632.34
2019-01-21T16:22:18.687Z,101628.27
2019-01-21T16:25:03.714Z,101627.21
2019-01-21T16:27:39.376Z,101627.34
2019-01-21T16:30:27.701Z,101625.23
2019-01-21T16:33:09.840Z,101625.16
2019-01-21T16:35:45.567Z,101625.08
2019-01-21T16:38:18.383Z,101626.92
2019-01-21T16:40:51.668Z,101619.80
2019-01-21T16:43:21.431Z,101616.27
2019-01-21T16:45:51.274Z,101619.39
2019-01-21T16:48:21.279Z,101616.21
2019-01-21T16:50:51.424Z,101613.06
2019-01-21T16:53:21.715Z,101611.70
2019-01-21T16:55:51.759Z,101611.34
2019-01-21T16:58:21.587Z,101617.14
2019-01-21T17:00:51.289Z,101615.87
2019-01-21T17:03:21.524Z,101615.92
2019-01-21T17:05:51.446Z,101617.06
2019-01-21T17:08:21.512Z,101612.82
2019-01-21T17:10:51.836Z,101605.32
2019-01-21T17:13:22.707Z,101603.84
2019-01-21T17:15:52.835Z,101603.53
2019-01-21T17:18:22.702Z,101609.09
2019-01-21T17:20:57.078Z,101598.75
2019-01-21T17:23:28.224Z,101602.19
2019-01-21T17:26:20.627Z,101608.39
2019-01-21T17:29:02.784Z,101603.56
2019-01-21T17:31:45.752Z,101608.34
2019-01-21T17:34:33.742Z,101601.78
2019-01-21T17:37:16.496Z,101602.70
2019-01-21T17:40:00.223Z,101603.41
2019-01-21T17:42:43.746Z,101602.98
2019-01-21T17:45:19.321Z,101596.72
2019-01-21T17:48:07.835Z,101594.41
2019-01-21T17:50:37.751Z,101587.30
2019-01-21T17:53:14.491Z,101592.48
2019-01-21T17:55:44.369Z,101592.56
2019-01-21T17:58:15.976Z,101583.55
2019-01-21T18:00:45.835Z,101590.68
2019-01-21T18:03:20.753Z,101586.11
2019-01-21T18:06:36.548Z,101581.73
2019-01-21T18:09:28.414Z,101583.97
2019-01-21T18:12:01.585Z,101576.88
2019-01-21T18:14:37.812Z,101576.09
2019-01-21T18:17:08.378Z,101579.13
2019-01-21T18:19:43.594Z,101574.05
2019-01-21T18:22:20.370Z,101570.97
2019-01-21T18:24:54.246Z,101573.78
2019-01-21T18:27:27.531Z,101576.32
2019-01-21T18:29:59.294Z,101569.19
2019-01-21T18:32:33.536Z,101578.08
2019-01-21T18:35:09.542Z,101573.64
2019-01-21T18:37:43.006Z,101573.30
2019-01-21T18:40:20.617Z,101572.73
2019-01-21T18:43:09.765Z,101572.14
2019-01-21T18:45:42.398Z,101574.84
2019-01-21T18:48:16.638Z,101565.05
2019-01-21T18:51:09.365Z,101560.11
2019-01-21T18:54:03.025Z,101564.06
2019-01-21T18:56:46.157Z,101557.43
2019-01-21T18:59:16.866Z,101565.80
2019-01-21T19:01:46.922Z,101562.56
2019-01-21T19:04:19.171Z,101568.92
2019-01-21T19:06:49.351Z,101560.05
2019-01-21T19:09:19.592Z,101562.94
2019-01-21T19:11:49.653Z,101562.16
2019-01-21T19:14:23.708Z,101558.50
2019-01-21T19:16:54.190Z,101558.55
2019-01-21T19:19:24.417Z,101558.50
2019-01-21T19:21:54.440Z,101558.55
2019-01-21T19:24:24.370Z,101569.69
2019-01-21T19:26:54.252Z,101563.35
2019-01-21T19:29:25.003Z,101557.16
2019-01-21T19:31:55.083Z,101557.16
2019-01-21T19:34:25.335Z,101552.80
2019-01-21T19:36:55.607Z,101551.45
2019-01-21T19:39:26.313Z,101555.05
2019-01-21T19:41:56.568Z,101554.14
2019-01-21T19:44:26.925Z,101554.55
2019-01-21T19:46:57.559Z,101547.80
2019-01-21T19:49:28.351Z,101550.62
2019-01-21T19:52:00.473Z,101549.35
2019-01-21T19:54:30.533Z,101551.02
2019-01-21T19:57:03.714Z,101545.81
2019-01-21T19:59:33.504Z,101552.37
2019-01-21T20:02:03.282Z,101544.89
2019-01-21T20:04:59.739Z,101545.41
2019-01-21T20:07:45.724Z,101542.66
2019-01-21T20:10:25.861Z,101539.20
2019-01-21T20:13:04.903Z,101542.73
2019-01-21T20:15:39.679Z,101543.16
2019-01-21T20:18:11.543Z,101539.91
2019-01-21T20:20:46.806Z,101543.58
2019-01-21T20:23:20.720Z,101544.48
2019-01-21T20:25:57.138Z,101540.88
2019-01-21T20:28:28.728Z,101538.72
2019-01-21T20:31:00.258Z,101535.95
2019-01-21T20:33:31.955Z,101532.86
2019-01-21T20:38:53.708Z,101528.00
2019-01-21T20:41:25.153Z,101534.19
2019-01-21T20:43:59.165Z,101535.20
2019-01-21T20:50:26.870Z,101532.45
2019-01-21T20:53:45.306Z,101531.61
2019-01-21T21:00:04.535Z,101523.91
2019-01-21T21:03:28.175Z,101529.19
2019-01-21T21:06:38.637Z,101530.62
2019-01-21T21:09:45.286Z,101531.12
2019-01-21T21:12:51.663Z,101525.34
2019-01-21T21:15:58.266Z,101528.02
2019-01-21T21:19:11.757Z,101531.95
2019-01-21T21:22:20.877Z,101530.67
2019-01-21T21:25:28.361Z,101533.09
2019-01-21T21:28:02.941Z,101529.55
2019-01-21T21:30:33.625Z,101535.55
2019-01-21T21:33:04.077Z,101534.22
2019-01-21T21:35:33.888Z,101531.95
2019-01-21T21:38:03.833Z,101528.87
2019-01-21T21:40:34.976Z,101527.73
2019-01-21T21:43:09.145Z,101526.34
2019-01-21T21:45:43.756Z,101529.44
2019-01-21T21:48:14.572Z,101525.36
2019-01-21T21:50:44.778Z,101529.09
2019-01-21T21:53:14.752Z,101528.66
2019-01-21T21:55:53.933Z,101528.09
2019-01-21T21:58:25.916Z,101527.33
2019-01-21T22:00:55.661Z,101521.13
2019-01-21T22:03:25.630Z,101526.92
2019-01-21T22:05:55.535Z,101517.97
2019-01-21T22:08:25.672Z,101515.86
2019-01-21T22:10:55.618Z,101512.34
2019-01-21T22:13:25.425Z,101505.73
2019-01-21T22:15:55.256Z,101503.89
2019-01-21T22:18:25.401Z,101499.91
2019-01-21T22:20:55.595Z,101503.05
2019-01-21T22:23:25.859Z,101499.13
2019-01-21T22:25:56.112Z,101496.59
2019-01-21T22:28:25.902Z,101491.23
2019-01-21T22:30:56.573Z,101488.02
2019-01-21T22:33:26.510Z,101488.98
2019-01-21T22:35:56.623Z,101491.72
2019-01-21T22:38:26.779Z,101494.83
2019-01-21T22:40:59.011Z,101490.87
2019-01-21T22:43:29.269Z,101488.70
2019-01-21T22:45:59.564Z,101490.89
2019-01-21T22:48:30.220Z,101481.19
2019-01-21T22:51:00.508Z,101484.28
2019-01-21T22:53:30.526Z,101479.92
2019-01-21T22:56:00.731Z,101480.34
2019-01-21T22:58:30.752Z,101476.75
2019-01-21T23:01:05.628Z,101480.41
2019-01-21T23:03:35.480Z,101483.50
2019-01-21T23:06:07.297Z,101485.53
2019-01-21T23:08:37.599Z,101479.92
2019-01-21T23:11:07.771Z,101476.03
2019-01-21T23:13:38.846Z,101477.38
2019-01-21T23:16:12.827Z,101469.77
2019-01-21T23:18:42.708Z,101470.49
2019-01-21T23:21:12.523Z,101472.02
2019-01-21T23:23:43.219Z,101465.83
2019-01-21T23:26:13.340Z,101460.48
2019-01-21T23:28:43.325Z,101459.50
2019-01-21T23:31:13.192Z,101455.14
2019-01-21T23:33:43.474Z,101460.06
2019-01-21T23:36:13.551Z,101453.80
2019-01-21T23:38:43.458Z,101451.13
2019-01-21T23:41:13.497Z,101450.81
2019-01-21T23:43:43.165Z,101441.84
2019-01-21T23:46:12.882Z,101440.67
2019-01-21T23:48:42.744Z,101438.42
2019-01-21T23:51:13.668Z,101433.50
2019-01-21T23:53:43.675Z,101429.15
2019-01-21T23:56:13.496Z,101432.23
2019-01-21T23:58:44.143Z,101429.28
